Tiempo atmosférico en la estación meteorológica de San Roque, Cádiz (1 m.)



Fecha
DESCASC
Temp. máxima en grados centígrados (hora)
DESCASC
Temp. mínima en grados centígrados (hora)
DESCASC
Temp. media en grados centígrados
DESCASC
Racha de viento máxima en m/sg (hora)
DESCASC
Velocidad máxima media en intervalos de 10 minutos(hora)
DESCASC
Precipitaciones diarias en mm
DESCASC
Precipitaciones de 00:00 a 06:00 en mm
DESCASC
Precipitaciones de 06:00 a 12:00 en mm
DESCASC
Precipitaciones de 12:00 a 18:00 en mm
DESCASC
Precipitaciones de 18:00 a 24:00 en mm
DESCASC
06-07-2020 26.4 (17:20) 17.3 (07:40) 21.8 5.28 (07:50) 3.61 (07:50) 0 0 0 0 0
05-07-2020 26.5 (17:10) 20.5 (07:10) 23.5 5.28 (10:30) 4.72 (10:30) 0 0 0 0 0
04-07-2020 25.6 (16:40) 20.6 (09:20) 23.1 8.33 (14:30) 6.67 (14:30) 0 0 0 0 0
03-07-2020 35.3 (14:10) 20.3 (07:30) 27.8 10.28 (16:10) 6.67 (12:20) 0 0 0 0 0
02-07-2020 36.2 (16:40) 20.9 (00:00) 28.6 11.67 (13:30) 7.78 (14:20) 0 0 0 0 0
01-07-2020 37.4 (17:10) 18 (00:00) 27.7 10 (15:50) 6.39 (14:00) 0 0 0 0 0
30-06-2020 25.4 (15:20) 18.1 (00:00) 21.8 4.17 (06:30) 3.06 (21:40) 0 0 0 0 0
29-06-2020 25.7 (16:20) 18.1 (00:00) 21.9 4.44 (08:10) 3.33 (07:40) 0 0 0 0 0
28-06-2020 25.3 (00:00) 18.3 (00:00) 21.8 6.11 (01:50) 4.17 (01:40) 0 0 0 0 0
27-06-2020 33.9 (16:40) 19.3 (00:00) 26.6 11.94 (04:00) 7.78 (07:40) 0 0 0 0 0
26-06-2020 30.7 (17:50) 18.8 (00:00) 24.8 13.89 (14:10) 9.17 (13:40) 0 0 0 0 0
25-06-2020 25.3 (16:50) 17.4 (00:00) 21.3 6.67 (23:50) 4.17 (23:50) 0 0 0 0 0
24-06-2020 25.7 (15:30) 19.2 (00:00) 22.5 5 (12:00) 4.17 (09:20) 0 0 0 0 0
23-06-2020 25.7 (16:40) 18.1 (00:00) 21.9 6.67 (13:20) 5.83 (13:20) 0 0 0 0 0
22-06-2020 25.1 (18:10) 16.6 (00:00) 20.9 6.94 (15:20) 5.56 (15:30) 0 0 0 0 0
21-06-2020 24.7 (16:00) 15.6 (00:00) 20.2 5 (08:20) 3.33 (07:30) 0 0 0 0 0
20-06-2020 23.8 (16:30) 16.3 (00:00) 20 5.56 (02:20) 3.61 (02:00) 0 0 0 0 0
19-06-2020 30.5 (16:50) 16.9 (00:00) 23.7 10.28 (01:20) 6.39 (01:20) 0 0 0 0 0
18-06-2020 29.6 (18:20) 18.8 (00:00) 24.2 11.67 (19:40) 7.78 (19:40) 0 0 0 0 0
17-06-2020 30.8 (15:40) 18.6 (00:00) 24.7 13.61 (14:10) 8.33 (15:50) 0 0 0 0 0
16-06-2020 29 (17:50) 18.6 (00:00) 23.8 15 (16:10) 9.44 (15:40) 0 0 0 0 0
15-06-2020 30 (17:30) 17.3 (00:00) 23.6 15 (22:40) 10.28 (22:40) 0 0 0 0 0
14-06-2020 27.8 (16:30) 17.2 (00:00) 22.5 14.72 (19:30) 9.44 (19:50) 0 0 0 0 0
13-06-2020 27.9 (17:30) 15 (00:00) 21.4 10.56 (15:30) 8.06 (15:40) 0 0 0 0 0
12-06-2020 23.6 (16:00) 16.2 (00:00) 19.9 12.78 (16:10) 8.06 (16:10) 7.6 6.4 1.2 0 0
11-06-2020 24.5 (15:10) 16.8 (00:00) 20.6 15.83 (18:50) 10.83 (19:00) 0 0 0 0 0
10-06-2020 29.8 (16:30) 16.7 (00:00) 23.3 10.28 (23:59) 7.78 (14:30) 0 0 0 0 0
09-06-2020 28.1 (17:00) 16.8 (00:00) 22.4 11.67 (16:20) 7.22 (13:20) 0 0 0 0 0

Gráficas

Temp. máximas Temp. mínimas Temp. medias Precipitaciones Rachas de viento máximas Velocidades máximas media en intervalos de 10 minutos

Datos horarios

Fecha y hora oficial Temperatura (ºC) Velocidad del viento (km/h) Dirección del viento Racha (km/h) Dirección de racha Precipitación (mm) Presión (hPa) Tendencia (hPa) Humedad (%)
2020-07-08 23:00:00 22.5 0 Calma 3 Sur 0 -- -- 81
2020-07-08 22:00:00 24.1 5 Sur 8 Sudeste 0 -- -- 80
2020-07-08 21:00:00 26.3 3 Este 6 Sudeste 0 -- -- 72
2020-07-08 20:00:00 27.3 3 Sudeste 5 Este 0 -- -- 66
2020-07-08 19:00:00 27.8 3 Sudeste 6 Este 0 -- -- 65
2020-07-08 18:00:00 27.9 3 Este 7 Nordeste 0 -- -- 62
2020-07-08 17:00:00 26.8 5 Nordeste 12 Nordeste 0 -- -- 59
2020-07-08 16:00:00 26.6 6 Nordeste 12 Nordeste 0 -- -- 62
2020-07-08 15:00:00 26.7 6 Nordeste 13 Este 0 -- -- 61
2020-07-08 14:00:00 27.3 6 Este 12 Nordeste 0 -- -- 60
2020-07-08 13:00:00 26.5 5 Este 12 Este 0 -- -- 60
2020-07-08 12:00:00 25.8 6 Nordeste 13 Nordeste 0 -- -- 59
2020-07-08 11:00:00 24.4 8 Nordeste 13 Nordeste 0 -- -- 66
2020-07-08 10:00:00 24.3 4 Sudeste 10 Nordeste 0 -- -- 67
2020-07-08 09:00:00 22.6 3 Nordeste 9 Nordeste 0 -- -- 72
2020-07-08 08:00:00 19.8 2 Norte 12 Norte 0 -- -- 76
2020-07-08 07:00:00 18.5 4 Noroeste 11 Noroeste 0 -- -- 72
2020-07-08 06:00:00 19 5 Noroeste 9 Oeste 0 -- -- 69
2020-07-08 05:00:00 20.2 9 Noroeste 24 Sudoeste 0 -- -- 60
2020-07-08 04:00:00 20 5 Nordeste 15 Norte 0 -- -- 66
2020-07-08 03:00:00 19.5 9 Oeste 18 Sudoeste 0 -- -- 67
2020-07-08 02:00:00 19.6 5 Noroeste 6 Noroeste 0 -- -- 81
2020-07-08 01:00:00 19.3 2 Noroeste -- -- 0 -- -- 80
2020-07-08 00:00:00 20.1 0 Calma 3 Norte 0 -- -- 82
2020-07-07 23:00:00 21.7 0 Calma 4 Oeste 0 -- -- 85
2020-07-07 22:00:00 23.5 0 Calma 5 Sudeste 0 -- -- 88
2020-07-07 21:00:00 24.1 4 Sudeste 7 Sudeste 0 -- -- 86
2020-07-07 20:00:00 24.9 4 Sudeste 5 Este 0 -- -- 83
2020-07-07 19:00:00 25 5 Sudeste 9 Sudeste 0 -- -- 83
2020-07-07 18:00:00 25.2 8 Sudeste 13 Sur 0 -- -- 82
2020-07-07 17:00:00 26.4 12 Sur 15 Sur 0 -- -- 78
2020-07-07 16:00:00 25.8 7 Sudeste 9 Sudeste 0 -- -- 80
2020-07-07 15:00:00 25.5 8 Sudeste 9 Sudeste 0 -- -- 78
2020-07-07 14:00:00 25.2 5 Sudeste 7 Sudeste 0 -- -- 75
2020-07-07 13:00:00 24.6 5 Sudeste 8 Sudeste 0 -- -- 72
2020-07-07 12:00:00 24.1 8 Sur 9 Sur 0 -- -- 71
2020-07-07 11:00:00 23.9 4 Sudeste 7 Nordeste 0 -- -- 71
2020-07-07 10:00:00 23.4 5 Nordeste 10 Noroeste 0 -- -- 65
2020-07-07 09:00:00 20.4 4 Noroeste 13 Noroeste 0 -- -- 69
2020-07-07 08:00:00 18.1 7 Noroeste 14 Noroeste 0 -- -- 73
2020-07-07 07:00:00 18 9 Noroeste 14 Noroeste 0 -- -- 71
2020-07-07 06:00:00 18.4 11 Noroeste 19 Noroeste 0 -- -- 69
2020-07-07 05:00:00 18.5 6 Noroeste 17 Noroeste 0 -- -- 74
2020-07-07 04:00:00 19 9 Noroeste 13 Noroeste 0 -- -- 73
2020-07-07 03:00:00 19.4 8 Norte 12 Noroeste 0 -- -- 74
2020-07-07 02:00:00 20.1 6 Noroeste 9 Noroeste 0 -- -- 87
2020-07-07 01:00:00 19.8 3 Noroeste 4 Oeste 0 -- -- 87
2020-07-07 00:00:00 19.9 2 Oeste 4 Sudoeste 0 -- -- 84
2020-07-06 23:00:00 21.8 2 Nordeste 4 Norte 0 -- -- 83
2020-07-06 22:00:00 23 0 Calma 9 Nordeste 0 -- -- 83
2020-07-06 21:00:00 24.2 5 Nordeste 8 Nordeste 0 -- -- 86
2020-07-06 20:00:00 25.1 4 Nordeste 8 Nordeste 0 -- -- 83
2020-07-06 19:00:00 25.4 4 Nordeste 12 Nordeste 0 -- -- 81
2020-07-06 18:00:00 25.4 8 Nordeste 11 Nordeste 0 -- -- 81
2020-07-06 17:00:00 26.3 6 Este 9 Este 0 -- -- 79
2020-07-06 16:00:00 26 5 Sudeste 8 Sudeste 0 -- -- 78
2020-07-06 15:00:00 26 6 Sudeste 9 Sudeste 0 -- -- 76
2020-07-06 14:00:00 25.8 5 Este 8 Sudeste 0 -- -- 73
2020-07-06 13:00:00 25.7 5 Este 8 Este 0 -- -- 70
2020-07-06 12:00:00 25.6 4 Nordeste 7 Nordeste 0 -- -- 67
2020-07-06 11:00:00 25.4 3 Este 6 Noroeste 0 -- -- 66
2020-07-06 10:00:00 23.3 4 Norte 13 Noroeste 0 -- -- 64
2020-07-06 09:00:00 20 9 Noroeste 18 Noroeste 0 -- -- 75
2020-07-06 08:00:00 17.4 13 Noroeste 19 Noroeste 0 -- -- 84
2020-07-06 07:00:00 17.7 11 Noroeste 16 Noroeste 0 -- -- 83
2020-07-06 06:00:00 17.9 9 Noroeste 15 Norte 0 -- -- 84
2020-07-06 05:00:00 18.6 10 Noroeste 14 Noroeste 0 -- -- 84
2020-07-06 04:00:00 18.6 8 Noroeste 10 Norte 0 -- -- 90
2020-07-06 03:00:00 17.9 3 Noroeste 7 Nordeste 0 -- -- 83
2020-07-06 02:00:00 21.3 5 Nordeste 10 Nordeste 0 -- -- 82
2020-07-06 01:00:00 21.4 4 Nordeste 9 Nordeste 0 -- -- 85
2020-07-06 00:00:00 21.7 4 Este 14 Nordeste 0 -- -- 83
2020-07-05 23:00:00 22.3 10 Nordeste 14 Este 0 -- -- 80
2020-07-05 22:00:00 22.8 7 Nordeste 12 Nordeste 0 -- -- 84
2020-07-05 21:00:00 24.5 4 Nordeste 8 Nordeste 0 -- -- 77
2020-07-05 20:00:00 25 5 Nordeste 9 Nordeste 0 -- -- 75
2020-07-05 19:00:00 25.2 6 Nordeste 8 Este 0 -- -- 76
2020-07-05 18:00:00 26.1 5 Este 9 Este 0 -- -- 76
2020-07-05 17:00:00 26.3 6 Sudeste 12 Este 0 -- -- 76
2020-07-05 16:00:00 25.9 8 Este 13 Este 0 -- -- 76
2020-07-05 15:00:00 25.7 6 Sudeste 12 Este 0 -- -- 78
2020-07-05 14:00:00 24.7 9 Sudeste 15 Sudeste 0 -- -- 80
2020-07-05 13:00:00 24 10 Sudeste 18 Sudeste 0 -- -- 82
2020-07-05 12:00:00 24.3 8 Sudeste 16 Este 0 -- -- 80
2020-07-05 11:00:00 23.1 14 Sudeste 19 Sudeste 0 -- -- 85
2020-07-05 10:00:00 22.9 13 Sudeste 18 Sudeste 0 -- -- 87
2020-07-05 09:00:00 22.2 13 Este 17 Este 0 -- -- 94
2020-07-05 08:00:00 20.8 10 Sudeste 15 Sudeste 0 -- -- 97
2020-07-05 07:00:00 20.7 6 Sur 9 Sur 0 -- -- 97
2020-07-05 06:00:00 21.2 6 Sur 8 Sur 0 -- -- 97
2020-07-05 05:00:00 21 0 Calma 5 Sudeste 0 -- -- 96
2020-07-05 04:00:00 20.7 2 Nordeste 6 Norte 0 -- -- 96
2020-07-05 03:00:00 20.6 3 Nordeste 13 Nordeste 0 -- -- 95
2020-07-05 02:00:00 21.2 7 Nordeste 13 Nordeste 0 -- -- 96
2020-07-05 01:00:00 21.1 2 Nordeste 12 Este 0 -- -- 94
2020-07-05 00:00:00 21.2 5 Nordeste 11 Nordeste 0 -- -- 93
2020-07-04 23:00:00 21.8 7 Nordeste 13 Norte 0 -- -- 90
2020-07-04 22:00:00 22.1 7 Nordeste 15 Nordeste 0 -- -- 89
2020-07-04 21:00:00 22.9 9 Nordeste 14 Nordeste 0 -- -- 88
2020-07-04 20:00:00 23.2 9 Nordeste 13 Nordeste 0 -- -- 87
2020-07-04 19:00:00 24 8 Nordeste 13 Nordeste 0 -- -- 84
2020-07-04 18:00:00 25.1 7 Nordeste 24 Este 0 -- -- 79
2020-07-04 17:00:00 25.4 9 Nordeste 22 Este 0 -- -- 80
2020-07-04 16:00:00 25 17 Este 23 Este 0 -- -- 80
2020-07-04 15:00:00 24.4 22 Este 30 Este 0 -- -- 82
2020-07-04 14:00:00 25.4 13 Este 25 Este 0 -- -- 77
2020-07-04 13:00:00 25.2 10 Este 17 Este 0 -- -- 78
2020-07-04 12:00:00 23.4 10 Nordeste 19 Este 0 -- -- 86
2020-07-04 11:00:00 21.8 11 Nordeste 21 Nordeste 0 -- -- 93
2020-07-04 10:00:00 20.9 10 Nordeste 15 Nordeste 0 -- -- 95
2020-07-04 09:00:00 20.8 8 Nordeste 15 Nordeste 0 -- -- 95
2020-07-04 08:00:00 21.3 12 Nordeste 16 Nordeste 0 -- -- 94
2020-07-04 07:00:00 21.6 8 Nordeste 12 Nordeste 0 -- -- 94
2020-07-04 06:00:00 21.6 7 Este 20 Este 0 -- -- 94
2020-07-04 05:00:00 20.9 3 Nordeste 16 Nordeste 0 -- -- 95
2020-07-04 04:00:00 20.8 8 Norte 15 Nordeste 0 -- -- 94
2020-07-04 03:00:00 21.3 3 Norte 8 Este 0 -- -- 92
2020-07-04 02:00:00 21.4 4 Nordeste 9 Norte 0 -- -- 92
2020-07-04 01:00:00 21.5 2 Norte 4 Noroeste 0 -- -- 91
2020-07-04 00:00:00 20.9 0 Calma 3 Sur 0 -- -- 88
2020-07-03 23:00:00 21.9 2 Nordeste 6 Nordeste 0 -- -- 88
2020-07-03 22:00:00 22.7 3 Nordeste 5 Nordeste 0 -- -- 88
2020-07-03 21:00:00 23.6 3 Nordeste 8 Nordeste 0 -- -- 84
2020-07-03 20:00:00 23.6 6 Nordeste 14 Nordeste 0 -- -- 84
2020-07-03 19:00:00 23.6 8 Nordeste 16 Nordeste 0 -- -- 84
2020-07-03 18:00:00 23.7 7 Nordeste 21 Nordeste 0 -- -- 81
2020-07-03 17:00:00 23.4 17 Nordeste 37 Nordeste 0 -- -- 81
2020-07-03 16:00:00 24 22 Nordeste 36 Nordeste 0 -- -- 75
2020-07-03 15:00:00 25.8 19 Nordeste 35 Nordeste 0 -- -- 61
2020-07-03 14:00:00 34.7 13 Noroeste 30 Oeste 0 -- -- 28
2020-07-03 13:00:00 33.6 19 Oeste 36 Oeste 0 -- -- 29
2020-07-03 12:00:00 32.1 19 Oeste 32 Noroeste 0 -- -- 34
2020-07-03 11:00:00 30.5 20 Oeste 30 Oeste 0 -- -- 41
2020-07-03 10:00:00 27 17 Oeste 25 Oeste 0 -- -- 56
2020-07-03 09:00:00 23.6 3 Este 8 Este 0 -- -- 71
2020-07-03 08:00:00 21.1 0 Calma 7 Oeste 0 -- -- 79
2020-07-03 07:00:00 20.6 4 Sur 12 Sudeste 0 -- -- 79
2020-07-03 06:00:00 21.7 5 Sudeste 33 Oeste 0 -- -- 74
2020-07-03 05:00:00 22 19 Oeste 34 Oeste 0 -- -- 74
2020-07-03 04:00:00 22.5 22 Oeste 34 Oeste 0 -- -- 70
2020-07-03 03:00:00 23 19 Oeste 29 Oeste 0 -- -- 66
2020-07-03 02:00:00 23.5 19 Oeste 31 Oeste 0 -- -- 64
2020-07-03 01:00:00 24.3 19 Oeste 30 Oeste 0 -- -- 61
2020-07-03 00:00:00 24.5 17 Oeste 28 Oeste 0 -- -- 61
2020-07-02 23:00:00 25.3 10 Oeste 18 Noroeste 0 -- -- 58
2020-07-02 22:00:00 28.2 5 Oeste 31 Oeste 0 -- -- 50
2020-07-02 21:00:00 30.6 18 Oeste 39 Oeste 0 -- -- 42
2020-07-02 20:00:00 33.1 24 Oeste 39 Oeste 0 -- -- 33
2020-07-02 19:00:00 35.2 22 Oeste 41 Oeste 0 -- -- 31
2020-07-02 18:00:00 36 24 Oeste 40 Oeste 0 -- -- 29
2020-07-02 17:00:00 36.1 21 Oeste 38 Oeste 0 -- -- 37
2020-07-02 16:00:00 35.6 23 Oeste 42 Oeste 0 -- -- 39
2020-07-02 15:00:00 35 19 Oeste 41 Oeste 0 -- -- 43
2020-07-02 14:00:00 34 26 Oeste 42 Noroeste 0 -- -- 43
2020-07-02 13:00:00 32.5 23 Oeste 37 Oeste 0 -- -- 48
2020-07-02 12:00:00 30 26 Oeste 40 Oeste 0 -- -- 56
2020-07-02 11:00:00 27.8 21 Oeste 35 Oeste 0 -- -- 61
2020-07-02 10:00:00 26 13 Oeste 30 Oeste 0 -- -- 66
2020-07-02 09:00:00 23.9 11 Oeste 19 Oeste 0 -- -- 69
2020-07-02 08:00:00 22.5 5 Sur 17 Oeste 0 -- -- 65
2020-07-02 07:00:00 21.9 11 Oeste 17 Oeste 0 -- -- 63
2020-07-02 06:00:00 20.9 12 Sudoeste 17 Oeste 0 -- -- 64
2020-07-02 05:00:00 22.2 12 Oeste 23 Oeste 0 -- -- 59
2020-07-02 04:00:00 22.7 14 Oeste 26 Noroeste 0 -- -- 57
2020-07-02 03:00:00 24 15 Noroeste 29 Oeste 0 -- -- 53
2020-07-02 02:00:00 24.8 17 Oeste 28 Noroeste 0 -- -- 46
2020-07-02 01:00:00 24.2 12 Oeste 17 Oeste 0 -- -- 44
2020-07-02 00:00:00 25 12 Sudoeste 20 Oeste 0 -- -- 51
2020-07-01 23:00:00 27.4 13 Oeste 27 Oeste 0 -- -- 41
2020-07-01 22:00:00 29 12 Oeste 26 Oeste 0 -- -- 35
2020-07-01 21:00:00 32.1 18 Oeste 28 Oeste 0 -- -- 31
2020-07-01 20:00:00 34.9 14 Oeste 27 Oeste 0 -- -- 28
2020-07-01 19:00:00 36.3 15 Oeste 33 Oeste 0 -- -- 28
2020-07-01 18:00:00 37 21 Oeste 33 Oeste 0 -- -- 30
2020-07-01 17:00:00 37.2 22 Oeste 33 Oeste 0 -- -- 30
2020-07-01 16:00:00 36.6 21 Oeste 36 Sudoeste 0 -- -- 29
2020-07-01 15:00:00 35.9 21 Oeste 35 Oeste 0 -- -- 30
2020-07-01 14:00:00 34.6 23 Sudoeste 33 Oeste 0 -- -- 35
2020-07-01 13:00:00 33.1 22 Oeste 33 Sudoeste 0 -- -- 41
2020-07-01 12:00:00 30.8 21 Oeste 32 Oeste 0 -- -- 47
2020-07-01 11:00:00 28.7 15 Oeste 27 Oeste 0 -- -- 51
2020-07-01 10:00:00 25.8 13 Oeste 21 Oeste 0 -- -- 63
2020-07-01 09:00:00 22.5 2 Oeste 8 Norte 0 -- -- 74
2020-07-01 08:00:00 19.9 4 Norte 8 Norte 0 -- -- 82
2020-07-01 07:00:00 19.3 4 Norte 10 Sudoeste 0 -- -- 83
2020-07-01 06:00:00 20.4 6 Sur 22 Noroeste 0 -- -- 82
2020-07-01 05:00:00 21 10 Noroeste 21 Noroeste 0 -- -- 79
2020-07-01 04:00:00 18 6 Oeste 10 Oeste 0 -- -- 88
2020-07-01 03:00:00 20 6 Noroeste 12 Noroeste 0 -- -- 92
2020-07-01 02:00:00 19.3 2 Oeste 7 Sudoeste 0 -- -- 90
2020-07-01 01:00:00 20.4 3 Oeste 8 Norte 0 -- -- 91
2020-07-01 00:00:00 21.3 3 Norte 5 Nordeste 0 -- -- 93
2020-06-30 23:00:00 21.9 5 Sur 12 Sudoeste 0 -- -- 90
2020-06-30 22:00:00 22.6 9 Sur 15 Sur 0 -- -- 88
2020-06-30 21:00:00 23.9 9 Sur 12 Sur 0 -- -- 84
2020-06-30 20:00:00 24.3 4 Sur 8 Sur 0 -- -- 83
2020-06-30 19:00:00 24.9 5 Sur 9 Sur 0 -- -- 81
2020-06-30 18:00:00 24.8 6 Sur 9 Sur 0 -- -- 81
2020-06-30 17:00:00 24.9 5 Sudeste 8 Sudeste 0 -- -- 82
2020-06-30 16:00:00 25.2 6 Sudeste 9 Este 0 -- -- 80
2020-06-30 15:00:00 25.2 5 Este 10 Este 0 -- -- 80
2020-06-30 14:00:00 24.7 7 Este 9 Este 0 -- -- 79
2020-06-30 13:00:00 23.5 5 Este 12 Nordeste 0 -- -- 83
2020-06-30 12:00:00 22.3 6 Nordeste 10 Este 0 -- -- 85
2020-06-30 11:00:00 24.1 8 Este 10 Este 0 -- -- 76
2020-06-30 10:00:00 23.2 2 Este 10 Noroeste 0 -- -- 65
2020-06-30 09:00:00 19.9 6 Noroeste 14 Norte 0 -- -- 71
2020-06-30 08:00:00 18.1 10 Noroeste 15 Noroeste 0 -- -- 76
2020-06-30 07:00:00 18.8 8 Noroeste 15 Noroeste 0 -- -- 73
2020-06-30 06:00:00 18.3 10 Noroeste 14 Noroeste 0 -- -- 74
2020-06-30 05:00:00 18.3 9 Noroeste 13 Norte 0 -- -- 75
2020-06-30 04:00:00 19 6 Noroeste 10 Noroeste 0 -- -- 81
2020-06-30 03:00:00 19.3 0 Calma 12 Nordeste 0 -- -- 74
2020-06-30 02:00:00 20.5 3 Nordeste 12 Nordeste 0 -- -- 73
2020-06-30 01:00:00 20.6 6 Nordeste 11 Nordeste 0 -- -- 76
2020-06-30 00:00:00 21.1 6 Nordeste 13 Nordeste 0 -- -- 75
2020-06-29 23:00:00 21.5 8 Nordeste 13 Nordeste 0 -- -- 76
2020-06-29 22:00:00 22.1 6 Nordeste 10 Nordeste 0 -- -- 70
2020-06-29 21:00:00 23.1 4 Este 10 Nordeste 0 -- -- 71
2020-06-29 20:00:00 23.7 7 Nordeste 11 Nordeste 0 -- -- 69
2020-06-29 19:00:00 24.6 8 Nordeste 13 Nordeste 0 -- -- 68
2020-06-29 18:00:00 25.1 8 Nordeste 12 Nordeste 0 -- -- 65
2020-06-29 17:00:00 25.6 6 Nordeste 12 Nordeste 0 -- -- 63
2020-06-29 16:00:00 25.2 6 Nordeste 14 Nordeste 0 -- -- 64
2020-06-29 15:00:00 24.3 10 Nordeste 14 Nordeste 0 -- -- 72
2020-06-29 14:00:00 25.3 5 Nordeste 9 Nordeste 0 -- -- 73
2020-06-29 13:00:00 24.7 5 Este 9 Este 0 -- -- 70
2020-06-29 12:00:00 24.2 5 Este 10 Este 0 -- -- 73
2020-06-29 11:00:00 24.7 4 Este 10 Norte 0 -- -- 69
2020-06-29 10:00:00 23.4 5 Norte 13 Norte 0 -- -- 75
2020-06-29 09:00:00 20.5 7 Noroeste 16 Noroeste 0 -- -- 87
2020-06-29 08:00:00 18.3 10 Noroeste 15 Noroeste 0 -- -- 96
2020-06-29 07:00:00 18.5 8 Noroeste 12 Noroeste 0 -- -- 96
2020-06-29 06:00:00 19 9 Noroeste 12 Norte 0 -- -- 95
2020-06-29 05:00:00 18.8 4 Noroeste 13 Norte 0 -- -- 93
2020-06-29 04:00:00 20.3 4 Noroeste 8 Noroeste 0 -- -- 94
2020-06-29 03:00:00 20.7 2 Norte 7 Nordeste 0 -- -- 94
2020-06-29 02:00:00 21 3 Norte 8 Norte 0 -- -- 95
2020-06-29 01:00:00 20.5 4 Nordeste 9 Norte 0 -- -- 95
2020-06-29 00:00:00 20.7 6 Nordeste 15 Nordeste 0 -- -- 95
2020-06-28 23:00:00 20.8 9 Nordeste 15 Nordeste 0 -- -- 94
2020-06-28 22:00:00 21.3 7 Nordeste 12 Norte 0 -- -- 92
2020-06-28 21:00:00 22.4 4 Nordeste 6 Sur 0 -- -- 87
2020-06-28 20:00:00 23.1 4 Sudeste 10 Sudeste 0 -- -- 83
2020-06-28 19:00:00 23.7 5 Nordeste 12 Nordeste 0 -- -- 82
2020-06-28 18:00:00 23.9 9 Nordeste 13 Nordeste 0 -- -- 82
2020-06-28 17:00:00 24.6 5 Sudeste 8 Sudeste 0 -- -- 79
2020-06-28 16:00:00 24.6 6 Este 9 Este 0 -- -- 78
2020-06-28 15:00:00 24.2 5 Nordeste 9 Nordeste 0 -- -- 80
2020-06-28 14:00:00 24.5 5 Este 9 Nordeste 0 -- -- 77
2020-06-28 13:00:00 24.4 6 Este 9 Este 0 -- -- 77
2020-06-28 12:00:00 24 5 Sudeste 7 Sudeste 0 -- -- 75
2020-06-28 11:00:00 24.5 5 Este 8 Este 0 -- -- 73
2020-06-28 10:00:00 24.4 3 Este 6 Este 0 -- -- 74
2020-06-28 09:00:00 22.2 0 Calma 5 Noroeste 0 -- -- 78
2020-06-28 08:00:00 19.3 4 Noroeste 8 Noroeste 0 -- -- 84
2020-06-28 07:00:00 19.4 6 Noroeste 8 Noroeste 0 -- -- 87
2020-06-28 06:00:00 18.5 2 Oeste 6 Norte 0 -- -- 81
2020-06-28 05:00:00 21.4 4 Nordeste 11 Norte 0 -- -- 74
2020-06-28 04:00:00 22 3 Norte 12 Nordeste 0 -- -- 70
2020-06-28 03:00:00 22.5 8 Nordeste 18 Oeste 0 -- -- 72
2020-06-28 02:00:00 24.4 14 Oeste 22 Oeste 0 -- -- 61
2020-06-28 01:00:00 24.3 8 Oeste 18 Oeste 0 -- -- 62
2020-06-28 00:00:00 25.3 14 Oeste 30 Oeste 0 -- -- 60
2020-06-27 23:00:00 26.4 20 Oeste 31 Oeste 0 -- -- 56
2020-06-27 22:00:00 27.8 20 Oeste 30 Oeste 0 -- -- 52
2020-06-27 21:00:00 30.6 19 Oeste 32 Oeste 0 -- -- 45
2020-06-27 20:00:00 32.3 19 Oeste 35 Oeste 0 -- -- 42
2020-06-27 19:00:00 33.5 22 Oeste 35 Oeste 0 -- -- 41
2020-06-27 18:00:00 33.5 22 Oeste 35 Oeste 0 -- -- 41
2020-06-27 17:00:00 33.7 19 Oeste 35 Oeste 0 -- -- 42
2020-06-27 16:00:00 33.8 21 Oeste 34 Oeste 0 -- -- 40
2020-06-27 15:00:00 32.8 20 Oeste 30 Oeste 0 -- -- 42
2020-06-27 14:00:00 31.5 21 Oeste 35 Sudoeste 0 -- -- 45
2020-06-27 13:00:00 29.8 21 Oeste 39 Oeste 0 -- -- 49
2020-06-27 12:00:00 27.6 23 Oeste 41 Oeste 0 -- -- 57
2020-06-27 11:00:00 25.8 27 Oeste 39 Oeste 0 -- -- 61
2020-06-27 10:00:00 24 24 Oeste 41 Oeste 0 -- -- 66
2020-06-27 09:00:00 21.6 26 Oeste 41 Oeste 0 -- -- 75
2020-06-27 08:00:00 19.8 24 Oeste 39 Oeste 0 -- -- 81
2020-06-27 07:00:00 19.7 22 Oeste 36 Oeste 0 -- -- 75
2020-06-27 06:00:00 20 21 Oeste 33 Oeste 0 -- -- 69
2020-06-27 05:00:00 19.9 17 Noroeste 38 Oeste 0 -- -- 70
2020-06-27 04:00:00 19.8 27 Oeste 43 Oeste 0 -- -- 67
2020-06-27 03:00:00 19.6 24 Oeste 35 Oeste 0 -- -- 71
2020-06-27 02:00:00 19.3 23 Oeste 34 Oeste 0 -- -- 73
2020-06-27 01:00:00 19.7 18 Oeste 37 Oeste 0 -- -- 79
2020-06-27 00:00:00 21.1 22 Oeste 36 Oeste 0 -- -- 70
2020-06-26 23:00:00 22.3 19 Oeste 39 Oeste 0 -- -- 64
2020-06-26 22:00:00 24.3 24 Oeste 33 Oeste 0 -- -- 56
2020-06-26 21:00:00 26.7 25 Oeste 41 Oeste 0 -- -- 50
2020-06-26 20:00:00 28.7 27 Oeste 42 Oeste 0 -- -- 51
2020-06-26 19:00:00 30.4 23 Oeste 43 Oeste 0 -- -- 49
2020-06-26 18:00:00 30.4 30 Oeste 42 Sudoeste 0 -- -- 47
2020-06-26 17:00:00 30.6 27 Oeste 41 Sudoeste 0 -- -- 49
2020-06-26 16:00:00 30.1 26 Oeste 43 Oeste 0 -- -- 50
2020-06-26 15:00:00 28.8 27 Oeste 50 Oeste 0 -- -- 54
2020-06-26 14:00:00 27.9 31 Oeste 49 Oeste 0 -- -- 57
2020-06-26 13:00:00 27.4 30 Oeste 46 Oeste 0 -- -- 59
2020-06-26 12:00:00 26.4 26 Oeste 45 Oeste 0 -- -- 62
2020-06-26 11:00:00 24.2 24 Oeste 40 Oeste 0 -- -- 70
2020-06-26 10:00:00 23.7 22 Oeste 34 Oeste 0 -- -- 73
2020-06-26 09:00:00 22.8 15 Oeste 22 Oeste 0 -- -- 79
2020-06-26 08:00:00 20 11 Oeste 20 Oeste 0 -- -- 86
2020-06-26 07:00:00 19.1 5 Noroeste 14 Oeste 0 -- -- 88
2020-06-26 06:00:00 19.5 4 Noroeste 14 Noroeste 0 -- -- 88
2020-06-26 05:00:00 19.9 7 Noroeste 17 Noroeste 0 -- -- 87
2020-06-26 04:00:00 20.3 12 Noroeste 19 Noroeste 0 -- -- 87
2020-06-26 03:00:00 20.5 12 Oeste 26 Oeste 0 -- -- 85
2020-06-26 02:00:00 20.9 10 Noroeste 23 Oeste 0 -- -- 84
2020-06-26 01:00:00 21.4 12 Noroeste 28 Oeste 0 -- -- 80
2020-06-26 00:00:00 22.1 15 Oeste 24 Oeste 0 -- -- 78
2020-06-25 23:00:00 22.9 7 Oeste 13 Noroeste 0 -- -- 77
2020-06-25 22:00:00 22.7 0 Calma 7 Sudeste 0 -- -- 79
2020-06-25 21:00:00 23.4 4 Nordeste 10 Nordeste 0 -- -- 79
2020-06-25 20:00:00 24 4 Nordeste 10 Este 0 -- -- 78
2020-06-25 19:00:00 24.8 9 Este 13 Este 0 -- -- 77
2020-06-25 18:00:00 25 6 Sudeste 10 Sur 0 -- -- 77
2020-06-25 17:00:00 25.2 7 Sudeste 9 Sur 0 -- -- 76
2020-06-25 16:00:00 25 8 Sudeste 11 Sudeste 0 -- -- 76
2020-06-25 15:00:00 24.9 7 Sudeste 10 Sudeste 0 -- -- 76
2020-06-25 14:00:00 24.5 5 Sudeste 8 Este 0 -- -- 78
2020-06-25 13:00:00 23.7 5 Sudeste 10 Sudeste 0 -- -- 80
2020-06-25 12:00:00 23.1 8 Sudeste 11 Sur 0 -- -- 81
2020-06-25 11:00:00 22.8 9 Sur 12 Sur 0 -- -- 80
2020-06-25 10:00:00 23 4 Sudeste 10 Noroeste 0 -- -- 78
2020-06-25 09:00:00 19.8 8 Noroeste 14 Noroeste 0 -- -- 85
2020-06-25 08:00:00 17.6 10 Noroeste 14 Noroeste 0 -- -- 90
2020-06-25 07:00:00 17.6 7 Noroeste 13 Noroeste 0 -- -- 93
2020-06-25 06:00:00 18.2 6 Noroeste 9 Noroeste 0 -- -- 95
2020-06-25 05:00:00 18.8 4 Noroeste 9 Norte 0 -- -- 95
2020-06-25 04:00:00 18.8 5 Noroeste 6 Noroeste 0 -- -- 95
2020-06-25 03:00:00 18.1 3 Oeste 4 Oeste 0 -- -- 92
2020-06-25 02:00:00 18.2 3 Sudoeste 5 Oeste 0 -- -- 92
2020-06-25 01:00:00 17.9 3 Oeste 4 Sudoeste 0 -- -- 90
2020-06-25 00:00:00 19.2 0 Calma 6 Nordeste 0 -- -- 89
2020-06-24 23:00:00 21 3 Nordeste 8 Nordeste 0 -- -- 93
2020-06-24 22:00:00 21 5 Nordeste 10 Nordeste 0 -- -- 92
2020-06-24 21:00:00 22.1 4 Nordeste 8 Nordeste 0 -- -- 87
2020-06-24 20:00:00 23 4 Nordeste 10 Este 0 -- -- 84
2020-06-24 19:00:00 23.6 5 Nordeste 9 Nordeste 0 -- -- 81
2020-06-24 18:00:00 24 4 Sudeste 10 Sur 0 -- -- 80
2020-06-24 17:00:00 24.5 8 Sur 14 Sudeste 0 -- -- 76
2020-06-24 16:00:00 25.5 8 Este 15 Este 0 -- -- 73
2020-06-24 15:00:00 23.9 8 Nordeste 14 Nordeste 0 -- -- 80
2020-06-24 14:00:00 24.4 6 Nordeste 16 Este 0 -- -- 76
2020-06-24 13:00:00 24.2 9 Nordeste 17 Nordeste 0 -- -- 74
2020-06-24 12:00:00 23.6 13 Nordeste 18 Este 0 -- -- 75
2020-06-24 11:00:00 25.1 5 Este 10 Nordeste 0 -- -- 70
2020-06-24 10:00:00 23 5 Nordeste 16 Sudeste 0 -- -- 74
2020-06-24 09:00:00 22.4 14 Sudeste 17 Sudeste 0 -- -- 77
2020-06-24 08:00:00 21 12 Nordeste 15 Nordeste 0 -- -- 81
2020-06-24 07:00:00 21.1 7 Nordeste 15 Nordeste 0 -- -- 78
2020-06-24 06:00:00 21.4 8 Norte 13 Norte 0 -- -- 75
2020-06-24 05:00:00 21.4 3 Norte 15 Norte 0 -- -- 75
2020-06-24 04:00:00 20.9 9 Nordeste 16 Nordeste 0 -- -- 81
2020-06-24 03:00:00 21 9 Nordeste 13 Nordeste 0 -- -- 82
2020-06-24 02:00:00 20.9 6 Nordeste 13 Nordeste 0 -- -- 82
2020-06-24 01:00:00 21.3 10 Nordeste 17 Nordeste 0 -- -- 81
2020-06-24 00:00:00 19.4 2 Sudoeste 5 Sudoeste 0 -- -- 82
2020-06-23 23:00:00 21.4 3 Nordeste 6 Este 0 -- -- 83
2020-06-23 22:00:00 22.7 3 Sudeste 14 Sudoeste 0 -- -- 77
2020-06-23 21:00:00 23.6 8 Sur 16 Sur 0 -- -- 74
2020-06-23 20:00:00 24.6 12 Sur 15 Sur 0 -- -- 70
2020-06-23 19:00:00 25.3 13 Sur 17 Sur 0 -- -- 69
2020-06-23 18:00:00 25.5 15 Sudeste 17 Sudeste 0 -- -- 71
2020-06-23 17:00:00 25.6 11 Sur 15 Sudeste 0 -- -- 71
2020-06-23 16:00:00 24.6 13 Sudeste 23 Sudeste 0 -- -- 74
2020-06-23 15:00:00 24.1 18 Sudeste 21 Sudeste 0 -- -- 75
2020-06-23 14:00:00 23.7 15 Sudeste 24 Sudeste 0 -- -- 77
2020-06-23 13:00:00 23.1 18 Sudeste 22 Sudeste 0 -- -- 78
2020-06-23 12:00:00 23.8 19 Sudeste 24 Sudeste 0 -- -- 76
2020-06-23 11:00:00 22.2 16 Sur 20 Sur 0 -- -- 80
2020-06-23 10:00:00 21.8 12 Sur 21 Sur 0 -- -- 82
2020-06-23 09:00:00 20.8 17 Sur 21 Sur 0 -- -- 83
2020-06-23 08:00:00 19.6 12 Sudeste 16 Sudeste 0 -- -- 86
2020-06-23 07:00:00 18.4 3 Este 9 Este 0 -- -- 85
2020-06-23 06:00:00 18.1 4 Este 7 Este 0 -- -- 84
2020-06-23 05:00:00 18.7 0 Calma 9 Nordeste 0 -- -- 83
2020-06-23 04:00:00 19.7 0 Calma 14 Este 0 -- -- 83
2020-06-23 03:00:00 20.3 10 Nordeste 19 Nordeste 0 -- -- 81
2020-06-23 02:00:00 20.2 9 Nordeste 23 Nordeste 0 -- -- 81
2020-06-23 01:00:00 20.3 11 Nordeste 19 Nordeste 0 -- -- 82
2020-06-23 00:00:00 20.5 8 Nordeste 15 Este 0 -- -- 81
2020-06-22 23:00:00 20.5 4 Nordeste 8 Nordeste 0 -- -- 82
2020-06-22 22:00:00 21.5 3 Este 8 Este 0 -- -- 76
2020-06-22 21:00:00 22.5 4 Nordeste 9 Nordeste 0 -- -- 72
2020-06-22 20:00:00 23.4 5 Nordeste 9 Nordeste 0 -- -- 68
2020-06-22 19:00:00 24.9 5 Este 10 Este 0 -- -- 65
2020-06-22 18:00:00 25 8 Sudeste 13 Sudeste 0 -- -- 66
2020-06-22 17:00:00 24.5 10 Sudeste 18 Sudeste 0 -- -- 68
2020-06-22 16:00:00 24.2 14 Sudeste 25 Este 0 -- -- 69
2020-06-22 15:00:00 23.8 17 Este 23 Este 0 -- -- 68
2020-06-22 14:00:00 23.4 15 Este 21 Este 0 -- -- 72
2020-06-22 13:00:00 22.5 8 Nordeste 15 Nordeste 0 -- -- 81
2020-06-22 12:00:00 22.1 8 Nordeste 17 Nordeste 0 -- -- 79
2020-06-22 11:00:00 22.6 8 Nordeste 17 Nordeste 0 -- -- 73
2020-06-22 10:00:00 22.7 4 Nordeste 9 Nordeste 0 -- -- 64
2020-06-22 09:00:00 20 5 Norte 13 Noroeste 0 -- -- 77
2020-06-22 08:00:00 17.6 8 Noroeste 12 Noroeste 0 -- -- 83
2020-06-22 07:00:00 16.7 9 Noroeste 13 Noroeste 0 -- -- 84
2020-06-22 06:00:00 17 6 Noroeste 11 Noroeste 0 -- -- 83
2020-06-22 05:00:00 17.2 6 Noroeste 15 Noroeste 0 -- -- 80
2020-06-22 04:00:00 17.6 8 Noroeste 12 Norte 0 -- -- 84
2020-06-22 03:00:00 18 5 Noroeste 10 Noroeste 0 -- -- 79
2020-06-22 02:00:00 18.8 8 Noroeste 10 Noroeste 0 -- -- 83
2020-06-22 01:00:00 17.6 2 Oeste 4 Noroeste 0 -- -- 80
2020-06-22 00:00:00 18.7 0 Calma 3 Oeste 0 -- -- 78
2020-06-21 23:00:00 20.4 0 Calma 2 Norte 0 -- -- 71
2020-06-21 22:00:00 22.7 0 Calma 3 Este 0 -- -- 69
2020-06-21 21:00:00 23.9 3 Este 4 Nordeste 0 -- -- 74
2020-06-21 20:00:00 24.6 3 Este 5 Este 0 -- -- 72
2020-06-21 19:00:00 24.7 3 Sudeste 10 Este 0 -- -- 71
2020-06-21 18:00:00 24.2 8 Este 12 Este 0 -- -- 77
2020-06-21 17:00:00 23.6 9 Nordeste 14 Nordeste 0 -- -- 77
2020-06-21 16:00:00 24.7 7 Nordeste 12 Este 0 -- -- 74
2020-06-21 15:00:00 24.5 6 Nordeste 13 Nordeste 0 -- -- 71
2020-06-21 14:00:00 24.1 5 Este 9 Nordeste 0 -- -- 74
2020-06-21 13:00:00 23.3 6 Sudeste 9 Sudeste 0 -- -- 75
2020-06-21 12:00:00 22.3 5 Sudeste 11 Sudeste 0 -- -- 73
2020-06-21 11:00:00 22.4 12 Sur 13 Sur 0 -- -- 72
2020-06-21 10:00:00 23.1 3 Norte 10 Norte 0 -- -- 67
2020-06-21 09:00:00 20.2 10 Noroeste 18 Noroeste 0 -- -- 73
2020-06-21 08:00:00 17.3 11 Noroeste 17 Norte 0 -- -- 81
2020-06-21 07:00:00 16.6 10 Noroeste 14 Noroeste 0 -- -- 84
2020-06-21 06:00:00 17.2 10 Noroeste 13 Norte 0 -- -- 81
2020-06-21 05:00:00 17.5 5 Noroeste 13 Noroeste 0 -- -- 80
2020-06-21 04:00:00 17.9 9 Noroeste 14 Noroeste 0 -- -- 80
2020-06-21 03:00:00 15.9 4 Noroeste 6 Noroeste 0 -- -- 85
2020-06-21 02:00:00 16.9 2 Noroeste 5 Noroeste 0 -- -- 81
2020-06-21 01:00:00 17.9 2 Noroeste 5 Sudoeste 0 -- -- 82
2020-06-21 00:00:00 18.2 3 Norte 5 Norte 0 -- -- 81
2020-06-20 23:00:00 18.5 3 Sudoeste 5 Sudoeste 0 -- -- 77
2020-06-20 22:00:00 20.8 0 Calma 6 Este 0 -- -- 83
2020-06-20 21:00:00 22.1 4 Sur 7 Sudeste 0 -- -- 79
2020-06-20 20:00:00 22.2 5 Sur 8 Sudeste 0 -- -- 82
2020-06-20 19:00:00 22.9 5 Este 7 Este 0 -- -- 79
2020-06-20 18:00:00 23.3 4 Este 8 Este 0 -- -- 78
2020-06-20 17:00:00 23.5 5 Este 8 Sudeste 0 -- -- 76
2020-06-20 16:00:00 23.6 6 Este 8 Este 0 -- -- 75
2020-06-20 15:00:00 22.9 5 Sudeste 8 Sudeste 0 -- -- 78
2020-06-20 14:00:00 23.3 7 Sudeste 9 Sudeste 0 -- -- 77
2020-06-20 13:00:00 22.6 5 Sudeste 7 Sudeste 0 -- -- 78
2020-06-20 12:00:00 22.9 4 Este 8 Este 0 -- -- 75
2020-06-20 11:00:00 22.2 4 Este 7 Este 0 -- -- 75
2020-06-20 10:00:00 21.5 4 Nordeste 9 Noroeste 0 -- -- 76
2020-06-20 09:00:00 19.7 7 Norte 11 Norte 0 -- -- 79
2020-06-20 08:00:00 17.3 6 Norte 9 Norte 0 -- -- 88
2020-06-20 07:00:00 16.7 4 Norte 8 Norte 0 -- -- 89
2020-06-20 06:00:00 16.8 2 Norte 6 Norte 0 -- -- 86
2020-06-20 05:00:00 18.1 5 Norte 12 Norte 0 -- -- 90
2020-06-20 04:00:00 17.9 9 Nordeste 15 Nordeste 0 -- -- 89
2020-06-20 03:00:00 18.8 9 Nordeste 20 Nordeste 0 -- -- 84
2020-06-20 02:00:00 18.6 13 Nordeste 20 Nordeste 0 -- -- 85
2020-06-20 01:00:00 19.9 4 Noroeste 10 Oeste 0 -- -- 69
2020-06-20 00:00:00 21.3 9 Sudoeste 15 Noroeste 0 -- -- 61
2020-06-19 23:00:00 23.5 9 Noroeste 16 Oeste 0 -- -- 57
2020-06-19 22:00:00 24.9 10 Oeste 23 Oeste 0 -- -- 52
2020-06-19 21:00:00 27.5 14 Oeste 22 Oeste 0 -- -- 51
2020-06-19 20:00:00 29.3 14 Oeste 23 Oeste 0 -- -- 48
2020-06-19 19:00:00 29.9 18 Oeste 32 Sudoeste 0 -- -- 46
2020-06-19 18:00:00 30.1 15 Sudoeste 29 Oeste 0 -- -- 46
2020-06-19 17:00:00 30.4 17 Sudoeste 37 Sudoeste 0 -- -- 45
2020-06-19 16:00:00 29.6 22 Sudoeste 35 Sudoeste 0 -- -- 48
2020-06-19 15:00:00 29.1 17 Oeste 35 Sudoeste 0 -- -- 48
2020-06-19 14:00:00 28.2 14 Oeste 31 Sudoeste 0 -- -- 51
2020-06-19 13:00:00 27.2 16 Oeste 32 Oeste 0 -- -- 52
2020-06-19 12:00:00 25.7 20 Oeste 33 Sudoeste 0 -- -- 60
2020-06-19 11:00:00 24 22 Oeste 33 Oeste 0 -- -- 65
2020-06-19 10:00:00 22.5 17 Oeste 29 Oeste 0 -- -- 69
2020-06-19 09:00:00 20.9 17 Oeste 28 Noroeste 0 -- -- 75
2020-06-19 08:00:00 19.1 9 Oeste 19 Noroeste 0 -- -- 83
2020-06-19 07:00:00 18.2 12 Oeste 19 Oeste 0 -- -- 85
2020-06-19 06:00:00 17.9 10 Oeste 16 Oeste 0 -- -- 85
2020-06-19 05:00:00 16.9 8 Oeste 15 Oeste 0 -- -- 84
2020-06-19 04:00:00 18.2 8 Oeste 15 Noroeste 0 -- -- 77
2020-06-19 03:00:00 18.8 5 Noroeste 25 Oeste 0 -- -- 72
2020-06-19 02:00:00 19.2 12 Noroeste 37 Oeste 0 -- -- 69
2020-06-19 01:00:00 19.3 21 Oeste 35 Oeste 0 -- -- 67
2020-06-19 00:00:00 19.7 21 Oeste 40 Oeste 0 -- -- 63
2020-06-18 23:00:00 20.9 22 Oeste 36 Oeste 0 -- -- 57
2020-06-18 22:00:00 22.6 15 Oeste 31 Oeste 0 -- -- 51
2020-06-18 21:00:00 25.7 19 Oeste 38 Oeste 0 -- -- 40
2020-06-18 20:00:00 27.5 23 Oeste 42 Oeste 0 -- -- 35
2020-06-18 19:00:00 29 24 Oeste 39 Oeste 0 -- -- 35
2020-06-18 18:00:00 28.5 23 Oeste 36 Sudoeste 0 -- -- 40
2020-06-18 17:00:00 20 6 Este 11 Este 0 -- -- 86
2020-06-18 16:00:00 20 6 Este 9 Este 0 -- -- 84
2020-06-18 15:00:00 21.5 6 Este 15 Este 0 -- -- 80
2020-06-18 14:00:00 20.9 6 Este 21 Nordeste 0 -- -- 85
2020-06-18 13:00:00 19.2 12 Nordeste 21 Nordeste 0 -- -- 87
2020-06-18 12:00:00 18.9 14 Nordeste 26 Nordeste 0 -- -- 87
2020-06-18 11:00:00 19.7 20 Nordeste 27 Nordeste 0 -- -- 78
2020-06-18 10:00:00 23.7 5 Nordeste 12 Nordeste 0 -- -- 60
2020-06-18 09:00:00 22.1 4 Norte 12 Noroeste 0 -- -- 61
2020-06-18 08:00:00 19.8 8 Noroeste 19 Noroeste 0 -- -- 70
2020-06-18 07:00:00 19.5 8 Noroeste 23 Noroeste 0 -- -- 67
2020-06-18 06:00:00 20 16 Oeste 26 Oeste 0 -- -- 65
2020-06-18 05:00:00 20.5 12 Noroeste 23 Oeste 0 -- -- 63
2020-06-18 04:00:00 21 14 Noroeste 27 Oeste 0 -- -- 60
2020-06-18 03:00:00 20.6 16 Oeste 31 Oeste 0 -- -- 63
2020-06-18 02:00:00 20.8 20 Oeste 37 Oeste 0 -- -- 64
2020-06-18 01:00:00 20.8 25 Oeste 41 Oeste 0 -- -- 67
2020-06-18 00:00:00 21.6 23 Oeste 39 Oeste 0 -- -- 65
2020-06-17 23:00:00 22.9 25 Oeste 42 Noroeste 0 -- -- 60
2020-06-17 22:00:00 24.9 22 Oeste 32 Oeste 0 -- -- 49
2020-06-17 21:00:00 27.6 20 Oeste 35 Oeste 0 -- -- 43
2020-06-17 20:00:00 29.5 23 Oeste 39 Oeste 0 -- -- 40
2020-06-17 19:00:00 30.6 23 Oeste 40 Oeste 0 -- -- 39
2020-06-17 18:00:00 30.7 27 Oeste 41 Oeste 0 -- -- 41
2020-06-17 17:00:00 30.4 28 Oeste 41 Oeste 0 -- -- 42
2020-06-17 16:00:00 29.7 27 Oeste 42 Sudoeste 0 -- -- 46
2020-06-17 15:00:00 30.4 15 Noroeste 49 Oeste 0 -- -- 42
2020-06-17 14:00:00 30 21 Oeste 39 Oeste 0 -- -- 45
2020-06-17 13:00:00 28.9 24 Oeste 37 Oeste 0 -- -- 48
2020-06-17 12:00:00 27.3 20 Oeste 37 Oeste 0 -- -- 52
2020-06-17 11:00:00 25.3 22 Oeste 32 Oeste 0 -- -- 60
2020-06-17 10:00:00 23.2 22 Oeste 34 Oeste 0 -- -- 68
2020-06-17 09:00:00 21.6 15 Oeste 27 Oeste 0 -- -- 76
2020-06-17 08:00:00 19.4 5 Sur 21 Oeste 0 -- -- 85
2020-06-17 07:00:00 18.6 8 Oeste 17 Oeste 0 -- -- 88
2020-06-17 06:00:00 18.9 10 Oeste 28 Oeste 0 -- -- 86
2020-06-17 05:00:00 19.4 21 Oeste 31 Oeste 0 -- -- 85
2020-06-17 04:00:00 19.3 19 Oeste 33 Oeste 0 -- -- 86
2020-06-17 03:00:00 19.8 22 Oeste 31 Oeste 0 -- -- 86
2020-06-17 02:00:00 19.9 14 Oeste 22 Oeste 0 -- -- 84
2020-06-17 01:00:00 20.3 12 Oeste 21 Oeste 0 -- -- 83
2020-06-17 00:00:00 21 5 Noroeste 20 Oeste 0 -- -- 78
2020-06-16 23:00:00 21.5 8 Oeste 28 Oeste 0 -- -- 75
2020-06-16 22:00:00 22.5 17 Oeste 31 Oeste 0 -- -- 71
2020-06-16 21:00:00 24.6 21 Oeste 43 Oeste 0 -- -- 63
2020-06-16 20:00:00 26.8 24 Oeste 41 Oeste 0 -- -- 54
2020-06-16 19:00:00 28.2 22 Oeste 43 Oeste 0 -- -- 46
2020-06-16 18:00:00 28.8 23 Oeste 45 Oeste 0 -- -- 43
2020-06-16 17:00:00 28.4 19 Noroeste 54 Oeste 0 -- -- 43
2020-06-16 16:00:00 28.3 29 Oeste 53 Oeste 0 -- -- 41
2020-06-16 15:00:00 28.6 27 Oeste 48 Oeste 0 -- -- 43
2020-06-16 14:00:00 28.2 29 Oeste 45 Oeste 0 -- -- 40
2020-06-16 13:00:00 27.4 26 Oeste 51 Sudoeste 0 -- -- 43
2020-06-16 12:00:00 25.7 30 Oeste 51 Oeste 0 -- -- 47
2020-06-16 11:00:00 25.6 29 Oeste 47 Oeste 0 -- -- 49
2020-06-16 10:00:00 23.7 19 Oeste 36 Oeste 0 -- -- 57
2020-06-16 09:00:00 21.2 21 Oeste 34 Oeste 0 -- -- 66
2020-06-16 08:00:00 19.5 10 Noroeste 30 Oeste 0 -- -- 73
2020-06-16 07:00:00 18.8 18 Oeste 35 Oeste 0 -- -- 76
2020-06-16 06:00:00 19.3 23 Oeste 39 Oeste 0 -- -- 76
2020-06-16 05:00:00 19.5 12 Oeste 26 Oeste 0 -- -- 75
2020-06-16 04:00:00 19.1 15 Oeste 30 Oeste 0 -- -- 74
2020-06-16 03:00:00 19.3 13 Noroeste 35 Oeste 0 -- -- 70
2020-06-16 02:00:00 19.7 26 Oeste 42 Oeste 0 -- -- 64
2020-06-16 01:00:00 19.5 27 Oeste 45 Oeste 0 -- -- 65
2020-06-16 00:00:00 19.6 31 Oeste 50 Oeste 0 -- -- 64
2020-06-15 23:00:00 20.2 33 Oeste 54 Oeste 0 -- -- 62
2020-06-15 22:00:00 21.8 28 Oeste 44 Oeste 0 -- -- 52
2020-06-15 21:00:00 24.9 28 Oeste 41 Oeste 0 -- -- 44
2020-06-15 20:00:00 28 22 Oeste 42 Oeste 0 -- -- 40
2020-06-15 19:00:00 29.4 24 Oeste 38 Oeste 0 -- -- 37
2020-06-15 18:00:00 29.8 23 Oeste 39 Oeste 0 -- -- 37
2020-06-15 17:00:00 29.9 23 Oeste 38 Oeste 0 -- -- 39
2020-06-15 16:00:00 29.3 19 Oeste 41 Oeste 0 -- -- 41
2020-06-15 15:00:00 28.1 22 Oeste 42 Oeste 0 -- -- 45
2020-06-15 14:00:00 27.5 24 Oeste 45 Sudoeste 0 -- -- 48
2020-06-15 13:00:00 26.6 26 Oeste 41 Oeste 0 -- -- 51
2020-06-15 12:00:00 25.4 27 Sudoeste 39 Sudoeste 0 -- -- 52
2020-06-15 11:00:00 24 25 Sudoeste 37 Sudoeste 0 -- -- 55
2020-06-15 10:00:00 22.3 21 Oeste 33 Sudoeste 0 -- -- 59
2020-06-15 09:00:00 20.1 21 Oeste 32 Oeste 0 -- -- 69
2020-06-15 08:00:00 18.3 21 Oeste 28 Oeste 0 -- -- 76
2020-06-15 07:00:00 17.5 21 Oeste 31 Oeste 0 -- -- 80
2020-06-15 06:00:00 17.6 18 Oeste 30 Oeste 0 -- -- 82
2020-06-15 05:00:00 18.4 19 Noroeste 34 Noroeste 0 -- -- 81
2020-06-15 04:00:00 18.4 21 Noroeste 37 Noroeste 0 -- -- 79
2020-06-15 03:00:00 18.2 18 Noroeste 34 Noroeste 0 -- -- 78
2020-06-15 02:00:00 18.1 19 Oeste 39 Oeste 0 -- -- 76
2020-06-15 01:00:00 18.6 26 Oeste 39 Oeste 0 -- -- 71
2020-06-15 00:00:00 18.9 30 Oeste 46 Oeste 0 -- -- 67
2020-06-14 23:00:00 19.4 25 Oeste 44 Oeste 0 -- -- 62
2020-06-14 22:00:00 20.2 26 Oeste 42 Oeste 0 -- -- 56
2020-06-14 21:00:00 22.2 26 Oeste 46 Oeste 0 -- -- 50
2020-06-14 20:00:00 23.9 31 Oeste 53 Oeste 0 -- -- 48
2020-06-14 19:00:00 25.5 33 Oeste 46 Oeste 0 -- -- 45
2020-06-14 18:00:00 26.8 25 Oeste 47 Oeste 0 -- -- 41
2020-06-14 17:00:00 27 32 Oeste 47 Oeste 0 -- -- 42
2020-06-14 16:00:00 27.4 26 Oeste 44 Sudoeste 0 -- -- 41
2020-06-14 15:00:00 27.1 26 Oeste 44 Sudoeste 0 -- -- 43
2020-06-14 14:00:00 26.7 27 Oeste 43 Oeste 0 -- -- 45
2020-06-14 13:00:00 25.8 29 Oeste 44 Oeste 0 -- -- 49
2020-06-14 12:00:00 24.6 25 Oeste 41 Oeste 0 -- -- 55
2020-06-14 11:00:00 23 26 Oeste 39 Oeste 0 -- -- 56
2020-06-14 10:00:00 21.4 26 Oeste 39 Oeste 0 -- -- 58
2020-06-14 09:00:00 19.6 15 Oeste 30 Oeste 0 -- -- 70
2020-06-14 08:00:00 17.8 17 Oeste 28 Oeste 0 -- -- 78
2020-06-14 07:00:00 17.2 17 Oeste 29 Oeste 0 -- -- 78
2020-06-14 06:00:00 17.6 18 Oeste 33 Oeste 0 -- -- 74
2020-06-14 05:00:00 18.4 22 Oeste 35 Oeste 0 -- -- 70
2020-06-14 04:00:00 18.5 18 Oeste 36 Oeste 0 -- -- 64
2020-06-14 03:00:00 18.2 19 Oeste 39 Oeste 0 -- -- 64
2020-06-14 02:00:00 18.8 26 Oeste 42 Oeste 0 -- -- 66
2020-06-14 01:00:00 18.7 20 Oeste 35 Oeste 0 -- -- 67
2020-06-14 00:00:00 19 17 Oeste 33 Oeste 0 -- -- 64
2020-06-13 23:00:00 20.1 21 Oeste 36 Oeste 0 -- -- 58
2020-06-13 22:00:00 21.1 18 Oeste 31 Oeste 0 -- -- 54
2020-06-13 21:00:00 22.9 19 Oeste 32 Oeste 0 -- -- 47
2020-06-13 20:00:00 24.8 19 Oeste 34 Oeste 0 -- -- 44
2020-06-13 19:00:00 26.3 23 Oeste 36 Sudoeste 0 -- -- 43
2020-06-13 18:00:00 27.5 20 Oeste 36 Oeste 0 -- -- 42
2020-06-13 17:00:00 27.5 21 Oeste 33 Sudoeste 0 -- -- 42
2020-06-13 16:00:00 25 22 Sur 38 Sudoeste 0 -- -- 45
2020-06-13 15:00:00 24.8 18 Sur 35 Sur 0 -- -- 50
2020-06-13 14:00:00 25.7 14 Oeste 33 Oeste 0 -- -- 38
2020-06-13 13:00:00 24.4 10 Oeste 32 Oeste 0 -- -- 43
2020-06-13 12:00:00 23.7 18 Oeste 33 Oeste 0 -- -- 46
2020-06-13 11:00:00 22.1 18 Oeste 30 Sudoeste 0 -- -- 52
2020-06-13 10:00:00 20.2 13 Oeste 22 Oeste 0 -- -- 61
2020-06-13 09:00:00 18.6 5 Nordeste 10 Noroeste 0 -- -- 75
2020-06-13 08:00:00 16.3 3 Oeste 17 Oeste 0 -- -- 84
2020-06-13 07:00:00 15.2 13 Oeste 18 Oeste 0 -- -- 87
2020-06-13 06:00:00 15.4 4 Noroeste 14 Sudoeste 0 -- -- 87
2020-06-13 05:00:00 16 10 Sudoeste 16 Oeste 0 -- -- 83
2020-06-13 04:00:00 16.7 8 Oeste 15 Oeste 0 -- -- 82
2020-06-13 03:00:00 17.4 7 Oeste 15 Oeste 0 -- -- 76
2020-06-13 02:00:00 18.6 9 Oeste 25 Oeste 0 -- -- 73
2020-06-13 01:00:00 18.3 13 Oeste 22 Oeste 0 -- -- 74
2020-06-13 00:00:00 18.3 11 Oeste 21 Oeste 0 -- -- 74
2020-06-12 23:00:00 18.5 11 Oeste 26 Oeste 0 -- -- 71
2020-06-12 22:00:00 18.9 10 Oeste 32 Sudoeste 0 -- -- 69
2020-06-12 21:00:00 19.8 16 Oeste 37 Sudoeste 0 -- -- 65
2020-06-12 20:00:00 21.8 21 Oeste 39 Sudoeste 0 -- -- 56
2020-06-12 19:00:00 23.1 25 Oeste 40 Sudoeste 0 -- -- 51
2020-06-12 18:00:00 23.5 25 Oeste 42 Sudoeste 0 -- -- 53
2020-06-12 17:00:00 22.3 20 Oeste 46 Oeste 0 -- -- 57
2020-06-12 16:00:00 23.6 26 Oeste 46 Oeste 0 -- -- 54
2020-06-12 15:00:00 23.3 20 Oeste 39 Oeste 0 -- -- 57
2020-06-12 14:00:00 22.7 19 Oeste 40 Oeste 0 -- -- 61
2020-06-12 13:00:00 21 19 Oeste 35 Oeste 0 -- -- 67
2020-06-12 12:00:00 19.3 15 Oeste 32 Oeste 0 -- -- 77
2020-06-12 11:00:00 18.7 14 Oeste 32 Oeste 0 -- -- 80
2020-06-12 10:00:00 17.5 10 Oeste 22 Noroeste 0 -- -- 89
2020-06-12 09:00:00 16.7 14 Oeste 29 Oeste 0 -- -- 91
2020-06-12 08:00:00 16.4 15 Oeste 32 Oeste 0 -- -- 94
2020-06-12 07:00:00 16.7 16 Oeste 33 Oeste 1.2 -- -- 96
2020-06-12 06:00:00 17 16 Sudoeste 24 Sudoeste 3.2 -- -- 96
2020-06-12 05:00:00 16.7 14 Oeste 26 Oeste 1 -- -- 95
2020-06-12 04:00:00 17.1 15 Sudoeste 33 Oeste 0 -- -- 95
2020-06-12 03:00:00 17.2 16 Oeste 26 Oeste 1.8 -- -- 95
2020-06-12 02:00:00 17.5 19 Oeste 32 Oeste 0.4 -- -- 93
2020-06-12 01:00:00 17.6 16 Sudoeste 34 Sudoeste 0 -- -- 91
2020-06-12 00:00:00 18.2 19 Oeste 36 Sudoeste 0 -- -- 85
2020-06-11 23:00:00 18.8 22 Oeste 36 Oeste 0 -- -- 80
2020-06-11 22:00:00 19.8 19 Oeste 40 Oeste 0 -- -- 72
2020-06-11 21:00:00 20.4 23 Oeste 47 Oeste 0 -- -- 66
2020-06-11 20:00:00 21.8 32 Oeste 54 Oeste 0 -- -- 59
2020-06-11 19:00:00 22.6 39 Oeste 57 Oeste 0 -- -- 54
2020-06-11 18:00:00 23.6 29 Oeste 54 Sudoeste 0 -- -- 52
2020-06-11 17:00:00 23.5 32 Sudoeste 53 Sudoeste 0 -- -- 54
2020-06-11 16:00:00 23.1 35 Oeste 54 Oeste 0 -- -- 54
2020-06-11 15:00:00 24.4 33 Oeste 55 Sudoeste 0 -- -- 50
2020-06-11 14:00:00 23.3 27 Oeste 55 Oeste 0 -- -- 53
2020-06-11 13:00:00 23.3 30 Oeste 48 Oeste 0 -- -- 51
2020-06-11 12:00:00 22.8 30 Oeste 55 Oeste 0 -- -- 55
2020-06-11 11:00:00 21.8 32 Oeste 49 Oeste 0 -- -- 56
2020-06-11 10:00:00 20.1 30 Oeste 47 Oeste 0 -- -- 63
2020-06-11 09:00:00 19.5 20 Oeste 33 Oeste 0 -- -- 68
2020-06-11 08:00:00 17.8 8 Noroeste 32 Oeste 0 -- -- 81
2020-06-11 07:00:00 17.3 15 Oeste 27 Noroeste 0 -- -- 83
2020-06-11 06:00:00 17.2 4 Oeste 21 Oeste 0 -- -- 84
2020-06-11 05:00:00 17 8 Oeste 19 Oeste 0 -- -- 85
2020-06-11 04:00:00 16.9 9 Oeste 17 Oeste 0 -- -- 84
2020-06-11 03:00:00 17.2 8 Sudoeste 18 Oeste 0 -- -- 80
2020-06-11 02:00:00 17.4 7 Sudoeste 19 Oeste 0 -- -- 72
2020-06-11 01:00:00 18.6 14 Oeste 34 Oeste 0 -- -- 66
2020-06-11 00:00:00 19.9 26 Oeste 37 Oeste 0 -- -- 62
2020-06-10 23:00:00 20.6 20 Oeste 30 Oeste 0 -- -- 60
2020-06-10 22:00:00 22.3 19 Oeste 31 Oeste 0 -- -- 57
2020-06-10 21:00:00 24.9 18 Oeste 31 Oeste 0 -- -- 39
2020-06-10 20:00:00 27.2 19 Oeste 33 Sudoeste 0 -- -- 41
2020-06-10 19:00:00 28.8 17 Oeste 32 Oeste 0 -- -- 31
2020-06-10 18:00:00 28.9 22 Oeste 33 Sudoeste 0 -- -- 32
2020-06-10 17:00:00 29.4 21 Oeste 34 Sudoeste 0 -- -- 38
2020-06-10 16:00:00 29.1 15 Sudoeste 37 Sur 0 -- -- 41
2020-06-10 15:00:00 24.1 26 Sur 35 Sur 0 -- -- 57
2020-06-10 14:00:00 24.2 21 Sur 32 Sur 0 -- -- 63
2020-06-10 13:00:00 22.4 16 Sur 21 Sur 0 -- -- 73
2020-06-10 12:00:00 21.7 13 Sur 18 Sudeste 0 -- -- 73
2020-06-10 11:00:00 22.1 10 Sudeste 15 Sur 0 -- -- 65
2020-06-10 10:00:00 22 5 Noroeste 13 Noroeste 0 -- -- 58
2020-06-10 09:00:00 19 8 Noroeste 16 Noroeste 0 -- -- 65
2020-06-10 08:00:00 16.9 6 Noroeste 13 Noroeste 0 -- -- 74
2020-06-10 07:00:00 17.4 8 Noroeste 24 Noroeste 0 -- -- 64
2020-06-10 06:00:00 18.3 16 Oeste 25 Oeste 0 -- -- 56
2020-06-10 05:00:00 18.5 9 Oeste 24 Oeste 0 -- -- 55
2020-06-10 04:00:00 18.5 16 Oeste 28 Oeste 0 -- -- 57
2020-06-10 03:00:00 18.8 20 Oeste 28 Oeste 0 -- -- 61
2020-06-10 02:00:00 19.7 16 Oeste 28 Noroeste 0 -- -- 61
2020-06-10 01:00:00 20.5 18 Noroeste 27 Oeste 0 -- -- 66
2020-06-10 00:00:00 20.8 13 Noroeste 27 Noroeste 0 -- -- 68
2020-06-09 23:00:00 21.3 15 Noroeste 26 Oeste 0 -- -- 66
2020-06-09 22:00:00 22.2 13 Noroeste 26 Noroeste 0 -- -- 63
2020-06-09 21:00:00 24.4 18 Oeste 26 Oeste 0 -- -- 57
2020-06-09 20:00:00 26.2 17 Oeste 29 Oeste 0 -- -- 51
2020-06-09 19:00:00 27.3 21 Oeste 32 Oeste 0 -- -- 49
2020-06-09 18:00:00 27.8 22 Sudoeste 37 Sudoeste 0 -- -- 47
2020-06-09 17:00:00 28.1 24 Sudoeste 42 Sudoeste 0 -- -- 48
2020-06-09 16:00:00 27.4 22 Oeste 36 Oeste 0 -- -- 48
2020-06-09 15:00:00 27.1 23 Oeste 40 Sudoeste 0 -- -- 49
2020-06-09 14:00:00 26.4 26 Oeste 40 Oeste 0 -- -- 51
2020-06-09 13:00:00 25.6 22 Oeste 39 Oeste 0 -- -- 53
2020-06-09 12:00:00 24.4 23 Oeste 40 Oeste 0 -- -- 58
2020-06-09 11:00:00 22.6 25 Oeste 37 Oeste 0 -- -- 61
2020-06-09 10:00:00 21.3 24 Oeste 36 Oeste 0 -- -- 66
2020-06-09 09:00:00 19.6 18 Oeste 32 Oeste 0 -- -- 75
2020-06-09 08:00:00 17.6 19 Oeste 26 Oeste 0 -- -- 82
2020-06-09 07:00:00 17.1 17 Oeste 24 Oeste 0 -- -- 84
2020-06-09 06:00:00 17 14 Oeste 21 Oeste 0 -- -- 83
2020-06-09 05:00:00 17.1 13 Oeste 20 Noroeste 0 -- -- 82
2020-06-09 04:00:00 17.3 10 Noroeste 20 Oeste 0 -- -- 79
2020-06-09 03:00:00 17.5 12 Oeste 21 Noroeste 0 -- -- 77
2020-06-09 02:00:00 17.9 15 Oeste 27 Oeste 0 -- -- 75
2020-06-09 01:00:00 18 17 Oeste 34 Oeste 0 -- -- 73
2020-06-09 00:00:00 18.3 18 Oeste 36 Oeste 0 -- -- 71